createdAt,value
2017-11-23T00:01:58.442Z,4.67
2017-11-23T00:04:31.841Z,4.40
2017-11-23T00:07:05.806Z,5.13
2017-11-23T00:09:37.285Z,5.70
2017-11-23T00:12:10.097Z,5.13
2017-11-23T00:14:42.990Z,4.30
2017-11-23T00:17:14.786Z,5.40
2017-11-23T00:19:47.118Z,5.10
2017-11-23T00:22:20.757Z,5.60
2017-11-23T00:24:52.117Z,6.20
2017-11-23T00:27:23.561Z,5.83
2017-11-23T00:29:55.002Z,5.40
2017-11-23T00:32:26.546Z,6.13
2017-11-23T00:34:57.901Z,5.70
2017-11-23T00:37:29.859Z,5.23
2017-11-23T00:40:05.738Z,4.93
2017-11-23T00:42:37.140Z,5.10
2017-11-23T00:45:09.984Z,4.83
2017-11-23T00:47:41.982Z,5.20
2017-11-23T00:50:17.253Z,5.10
2017-11-23T00:52:48.841Z,6.10
2017-11-23T00:55:20.681Z,5.43
2017-11-23T00:57:52.041Z,5.27
2017-11-23T01:00:25.444Z,4.70
2017-11-23T01:02:57.606Z,4.93
2017-11-23T01:05:29.957Z,5.60
2017-11-23T01:08:02.576Z,5.57
2017-11-23T01:10:34.204Z,5.77
2017-11-23T01:13:06.508Z,5.87
2017-11-23T01:15:38.762Z,5.30
2017-11-23T01:18:14.471Z,5.50
2017-11-23T01:20:46.850Z,6.40
2017-11-23T01:23:19.116Z,5.80
2017-11-23T01:25:50.714Z,4.97
2017-11-23T01:28:25.366Z,5.40
2017-11-23T01:30:56.697Z,5.50
2017-11-23T01:33:29.733Z,5.10
2017-11-23T01:36:02.326Z,5.17
2017-11-23T01:38:34.908Z,6.73
2017-11-23T01:41:06.521Z,6.03
2017-11-23T01:43:38.810Z,5.03
2017-11-23T01:46:17.778Z,5.03
2017-11-23T01:48:50.196Z,5.40
2017-11-23T01:51:21.603Z,5.27
2017-11-23T01:53:53.030Z,5.43
2017-11-23T01:56:25.635Z,5.97
2017-11-23T01:58:57.135Z,5.60
2017-11-23T02:01:28.892Z,5.47
2017-11-23T02:04:04.053Z,4.93
2017-11-23T02:06:35.908Z,5.40
2017-11-23T02:09:08.112Z,5.97
2017-11-23T02:11:40.702Z,5.50
2017-11-23T02:14:12.893Z,5.37
2017-11-23T02:16:44.331Z,4.90
2017-11-23T02:19:17.668Z,5.53
2017-11-23T02:21:49.181Z,5.00
2017-11-23T02:24:21.910Z,5.10
2017-11-23T02:26:53.681Z,4.80
2017-11-23T02:29:25.208Z,4.63
2017-11-23T02:31:57.464Z,5.37
2017-11-23T02:34:30.263Z,5.70
2017-11-23T02:37:02.862Z,4.60
2017-11-23T02:39:34.682Z,5.07
2017-11-23T02:42:10.236Z,6.43
2017-11-23T02:44:41.618Z,5.90
2017-11-23T02:47:13.091Z,5.37
2017-11-23T02:49:44.700Z,5.10
2017-11-23T02:52:18.782Z,5.10
2017-11-23T02:54:50.502Z,5.70
2017-11-23T02:57:24.685Z,5.50
2017-11-23T02:59:56.148Z,5.47
2017-11-23T03:02:27.488Z,5.70
2017-11-23T03:04:58.994Z,5.20
2017-11-23T03:07:32.267Z,5.57
2017-11-23T03:12:42.582Z,5.77
2017-11-23T03:15:14.680Z,5.17
2017-11-23T03:17:46.040Z,5.03
2017-11-23T03:20:20.027Z,4.83
2017-11-23T03:22:51.360Z,6.00
2017-11-23T03:25:23.486Z,5.27
2017-11-23T03:27:54.787Z,5.03
2017-11-23T03:30:26.698Z,5.30
2017-11-23T03:32:58.046Z,5.70
2017-11-23T03:35:29.356Z,5.53
2017-11-23T03:38:02.669Z,5.23
2017-11-23T03:40:34.376Z,4.73
2017-11-23T03:43:06.663Z,5.70
2017-11-23T03:45:38.305Z,4.80
2017-11-23T03:48:12.173Z,5.10
2017-11-23T03:50:43.520Z,5.20
2017-11-23T03:53:16.600Z,5.33
2017-11-23T03:55:47.925Z,5.47
2017-11-23T03:58:20.829Z,5.20
2017-11-23T04:00:52.200Z,5.13
2017-11-23T04:03:24.009Z,5.10
2017-11-23T04:05:55.509Z,5.67
2017-11-23T04:08:28.161Z,5.73
2017-11-23T04:10:59.794Z,4.70
2017-11-23T04:13:31.103Z,5.57
2017-11-23T04:16:07.584Z,6.00
2017-11-23T04:18:38.931Z,5.17
2017-11-23T04:21:10.461Z,5.80
2017-11-23T04:23:43.089Z,6.20
2017-11-23T04:26:21.359Z,5.20
2017-11-23T04:28:52.750Z,5.20
2017-11-23T04:31:25.783Z,5.70
2017-11-23T04:33:57.349Z,5.50
2017-11-23T04:36:29.057Z,5.43
2017-11-23T04:39:00.506Z,5.97
2017-11-23T04:41:32.598Z,5.90
2017-11-23T04:44:05.559Z,5.53
2017-11-23T04:46:37.154Z,5.63
2017-11-23T04:49:08.797Z,4.50
2017-11-23T04:51:40.348Z,5.70
2017-11-23T04:54:15.360Z,5.70
2017-11-23T04:56:47.011Z,6.37
2017-11-23T04:59:19.731Z,5.13
2017-11-23T05:01:51.090Z,6.00
2017-11-23T05:04:23.397Z,6.00
2017-11-23T05:06:54.724Z,5.13
2017-11-23T05:09:26.017Z,5.77
2017-11-23T05:11:57.965Z,5.80
2017-11-23T05:14:30.640Z,6.00
2017-11-23T05:17:02.575Z,5.73
2017-11-23T05:19:34.918Z,5.33
2017-11-23T05:22:07.236Z,5.43
2017-11-23T05:24:38.612Z,5.50
2017-11-23T05:27:08.996Z,5.27
2017-11-23T05:29:40.313Z,5.37
2017-11-23T05:32:14.249Z,5.37
2017-11-23T05:34:45.854Z,4.93
2017-11-23T05:37:17.507Z,5.10
2017-11-23T05:39:48.867Z,4.37
2017-11-23T05:45:22.453Z,4.70
2017-11-23T05:47:53.793Z,5.00
2017-11-23T05:50:25.152Z,5.40
2017-11-23T05:52:56.565Z,5.47
2017-11-23T05:55:28.866Z,4.73
2017-11-23T05:58:00.467Z,5.77
2017-11-23T06:00:31.837Z,4.90
2017-11-23T06:03:03.646Z,5.00
2017-11-23T06:05:34.990Z,5.23
2017-11-23T06:08:11.167Z,5.90
2017-11-23T06:10:42.533Z,5.30
2017-11-23T06:13:14.258Z,4.43
2017-11-23T06:15:45.867Z,5.00
2017-11-23T06:18:21.899Z,4.63
2017-11-23T06:20:53.312Z,4.63
2017-11-23T06:23:24.870Z,4.60
2017-11-23T06:25:56.191Z,5.23
2017-11-23T06:28:27.624Z,5.00
2017-11-23T06:31:01.015Z,4.80
2017-11-23T06:33:36.257Z,4.90
2017-11-23T06:38:32.455Z,4.73
2017-11-23T06:41:04.925Z,4.40
2017-11-23T06:43:36.239Z,4.77
2017-11-23T06:46:14.037Z,5.47
2017-11-23T06:48:45.422Z,5.00
2017-11-23T06:51:17.768Z,4.30
2017-11-23T06:53:50.276Z,4.00
2017-11-23T06:56:22.596Z,4.80
2017-11-23T06:58:53.938Z,4.03
2017-11-23T07:01:27.108Z,5.27
2017-11-23T07:03:58.397Z,4.00
2017-11-23T07:06:29.725Z,4.83
2017-11-23T07:09:01.638Z,4.97
2017-11-23T07:11:34.080Z,4.50
2017-11-23T07:14:08.370Z,4.13
2017-11-23T07:16:42.110Z,4.97
2017-11-23T07:19:13.922Z,4.00
2017-11-23T07:21:45.260Z,4.40
2017-11-23T07:24:19.943Z,3.77
2017-11-23T07:26:51.556Z,3.77
2017-11-23T07:29:23.633Z,4.33
2017-11-23T07:31:55.161Z,3.90
2017-11-23T07:34:44.918Z,4.23
2017-11-23T07:37:16.526Z,4.60
2017-11-23T07:39:47.891Z,4.43
2017-11-23T07:42:28.993Z,3.87
2017-11-23T07:45:01.549Z,4.53
2017-11-23T07:47:34.076Z,4.27
2017-11-23T07:52:45.356Z,4.80
2017-11-23T07:55:17.141Z,4.57
2017-11-23T07:57:48.942Z,3.70
2017-11-23T08:00:24.501Z,3.63
2017-11-23T08:02:55.881Z,4.60
2017-11-23T08:05:27.905Z,3.80
2017-11-23T08:07:59.849Z,4.40
2017-11-23T08:10:36.261Z,3.73
2017-11-23T08:13:08.861Z,3.90
2017-11-23T08:15:40.299Z,3.73
2017-11-23T08:18:14.486Z,4.80
2017-11-23T08:20:46.055Z,3.23
2017-11-23T08:23:17.761Z,4.10
2017-11-23T08:25:49.095Z,3.73
2017-11-23T08:28:21.784Z,4.90
2017-11-23T08:30:53.844Z,3.90
2017-11-23T08:33:25.226Z,3.80
2017-11-23T08:35:57.457Z,4.10
2017-11-23T08:38:29.788Z,4.23
2017-11-23T08:41:02.069Z,3.77
2017-11-23T08:43:36.485Z,4.13
2017-11-23T08:46:11.980Z,4.20
2017-11-23T08:48:45.702Z,3.77
2017-11-23T08:51:17.889Z,3.80
2017-11-23T08:53:49.238Z,3.20
2017-11-23T08:56:23.207Z,3.47
2017-11-23T08:58:55.480Z,4.20
2017-11-23T09:01:34.106Z,3.70
2017-11-23T09:04:13.740Z,3.67
2017-11-23T09:06:45.200Z,3.77
2017-11-23T09:09:16.826Z,4.50
2017-11-23T09:11:48.560Z,4.03
2017-11-23T09:14:22.964Z,3.63
2017-11-23T09:16:54.300Z,4.27
2017-11-23T09:19:26.331Z,4.93
2017-11-23T09:21:57.697Z,4.20
2017-11-23T09:24:39.262Z,4.10
2017-11-23T09:27:10.646Z,4.00
2017-11-23T09:29:42.017Z,4.30
2017-11-23T09:32:24.910Z,3.43
2017-11-23T09:34:56.568Z,4.63
2017-11-23T09:37:29.218Z,4.10
2017-11-23T09:42:39.314Z,3.97
2017-11-23T09:45:10.653Z,4.37
2017-11-23T09:47:42.290Z,4.07
2017-11-23T09:50:16.893Z,6.23
2017-11-23T09:52:49.230Z,3.80
2017-11-23T09:55:21.686Z,4.97
2017-11-23T09:57:53.184Z,3.83
2017-11-23T10:00:24.660Z,4.37
2017-11-23T10:02:56.346Z,3.73
2017-11-23T10:05:27.728Z,4.00
2017-11-23T10:07:59.062Z,4.20
2017-11-23T10:10:31.765Z,4.30
2017-11-23T10:13:03.614Z,3.23
2017-11-23T10:15:49.430Z,4.00
2017-11-23T10:18:20.877Z,3.40
2017-11-23T10:20:52.512Z,3.30
2017-11-23T10:23:25.794Z,3.90
2017-11-23T10:25:57.234Z,2.90
2017-11-23T10:28:29.905Z,3.57
2017-11-23T10:31:01.659Z,3.30
2017-11-23T10:33:34.263Z,3.57
2017-11-23T10:36:16.029Z,3.70
2017-11-23T10:38:47.384Z,3.80
2017-11-23T10:41:19.033Z,3.37
2017-11-23T10:43:50.679Z,3.03
2017-11-23T10:46:26.264Z,3.30
2017-11-23T10:48:57.946Z,3.10
2017-11-23T10:51:30.603Z,3.47
2017-11-23T10:54:06.405Z,3.20
2017-11-23T10:56:38.710Z,3.60
2017-11-23T10:59:10.058Z,2.83
2017-11-23T11:01:41.505Z,3.43
2017-11-23T11:04:14.854Z,3.20
2017-11-23T11:06:47.830Z,3.20
2017-11-23T11:09:21.281Z,3.60
2017-11-23T11:11:52.732Z,2.60
2017-11-23T11:14:24.934Z,3.43
2017-11-23T11:16:56.273Z,3.13
2017-11-23T11:19:28.352Z,3.73
2017-11-23T11:22:00.320Z,3.17
2017-11-23T11:24:33.455Z,2.63
2017-11-23T11:27:04.791Z,3.83
2017-11-23T11:29:37.029Z,2.93
2017-11-23T11:32:14.827Z,2.67
2017-11-23T11:34:46.171Z,2.83
2017-11-23T11:37:17.679Z,3.00
2017-11-23T11:39:49.058Z,2.80
2017-11-23T11:42:22.401Z,2.60
2017-11-23T11:44:54.042Z,2.87
2017-11-23T11:47:25.390Z,3.23
2017-11-23T11:49:56.747Z,2.60
2017-11-23T11:52:28.546Z,2.83
2017-11-23T11:55:00.226Z,3.73
2017-11-23T11:57:31.738Z,2.23
2017-11-23T12:00:04.429Z,2.10
2017-11-23T12:02:36.143Z,2.53
2017-11-23T12:05:08.459Z,2.40
2017-11-23T12:07:39.884Z,2.83
2017-11-23T12:10:15.341Z,3.27
2017-11-23T12:12:48.398Z,2.90
2017-11-23T12:15:28.747Z,2.60
2017-11-23T12:22:27.678Z,3.47
2017-11-23T12:25:03.799Z,3.93
2017-11-23T12:27:44.777Z,2.30
2017-11-23T12:30:21.300Z,3.00
2017-11-23T12:32:52.656Z,2.60
2017-11-23T12:38:12.914Z,3.17
2017-11-23T12:40:44.358Z,2.50
2017-11-23T12:43:16.328Z,3.13
2017-11-23T12:45:47.727Z,2.57
2017-11-23T12:48:21.854Z,2.80
2017-11-23T12:50:53.613Z,2.90
2017-11-23T12:53:24.931Z,2.57
2017-11-23T12:55:56.245Z,3.33
2017-11-23T12:58:28.195Z,3.17
2017-11-23T13:00:59.545Z,2.33
2017-11-23T13:03:31.941Z,2.83
2017-11-23T13:06:14.815Z,3.00
2017-11-23T13:08:47.014Z,2.53
2017-11-23T13:11:19.273Z,2.73
2017-11-23T13:13:51.866Z,2.50
2017-11-23T13:16:23.789Z,2.83
2017-11-23T13:18:55.142Z,2.97
2017-11-23T13:21:29.212Z,3.20
2017-11-23T13:24:03.725Z,3.40
2017-11-23T13:26:36.744Z,3.30
2017-11-23T13:29:08.343Z,3.07
2017-11-23T13:31:39.683Z,2.73
2017-11-23T13:34:20.788Z,3.87
2017-11-23T13:36:52.254Z,2.77
2017-11-23T13:39:23.905Z,3.10
2017-11-23T13:41:56.198Z,2.73
2017-11-23T13:44:28.886Z,3.73
2017-11-23T13:47:01.420Z,3.40
2017-11-23T13:49:32.948Z,3.60
2017-11-23T13:52:09.367Z,3.37
2017-11-23T13:54:41.391Z,3.57
2017-11-23T13:57:13.245Z,3.93
2017-11-23T13:59:44.861Z,3.37
2017-11-23T14:02:21.420Z,3.17
2017-11-23T14:04:52.994Z,2.83
2017-11-23T14:07:24.678Z,2.70
2017-11-23T14:09:56.749Z,3.20
2017-11-23T14:12:29.067Z,2.40
2017-11-23T14:15:00.520Z,2.37
2017-11-23T14:17:32.860Z,2.40
2017-11-23T14:20:07.206Z,2.90
2017-11-23T14:22:41.304Z,2.93
2017-11-23T14:25:12.696Z,2.50
2017-11-23T14:27:44.973Z,2.70
2017-11-23T14:30:19.725Z,2.30
2017-11-23T14:32:51.061Z,2.40
2017-11-23T14:35:22.749Z,2.50
2017-11-23T14:37:54.141Z,2.30
2017-11-23T14:40:25.466Z,2.17
2017-11-23T14:42:57.666Z,2.00
2017-11-23T14:45:29.116Z,2.43
2017-11-23T14:48:00.649Z,2.47
2017-11-23T14:50:33.415Z,2.60
2017-11-23T14:53:04.920Z,2.60
2017-11-23T14:55:36.716Z,3.60
2017-11-23T14:58:13.222Z,1.90
2017-11-23T15:00:45.255Z,2.60
2017-11-23T15:03:16.783Z,2.50
2017-11-23T15:05:49.365Z,2.30
2017-11-23T15:08:22.622Z,1.87
2017-11-23T15:10:54.080Z,2.80
2017-11-23T15:13:27.197Z,2.60
2017-11-23T15:15:59.784Z,2.00
2017-11-23T15:18:31.745Z,2.30
2017-11-23T15:21:04.095Z,2.20
2017-11-23T15:23:37.963Z,3.30
2017-11-23T15:26:13.665Z,2.27
2017-11-23T15:28:44.974Z,2.40
2017-11-23T15:31:16.413Z,2.53
2017-11-23T15:33:48.036Z,2.63
2017-11-23T15:36:22.744Z,2.60
2017-11-23T15:38:54.567Z,2.20
2017-11-23T15:41:28.186Z,2.57
2017-11-23T15:43:59.541Z,2.27
2017-11-23T15:46:30.922Z,2.83
2017-11-23T15:49:04.320Z,2.50
2017-11-23T15:51:38.414Z,2.90
2017-11-23T15:54:15.806Z,2.77
2017-11-23T15:56:47.153Z,2.67
2017-11-23T15:59:19.405Z,2.70
2017-11-23T16:01:53.898Z,3.33
2017-11-23T16:04:26.553Z,2.20
2017-11-23T16:06:58.144Z,2.97
2017-11-23T16:09:29.696Z,2.80
2017-11-23T16:12:03.256Z,2.70
2017-11-23T16:14:34.634Z,2.83
2017-11-23T16:17:08.078Z,3.20
2017-11-23T16:19:39.732Z,2.33
2017-11-23T16:22:12.717Z,2.43
2017-11-23T16:24:45.023Z,2.53
2017-11-23T16:27:17.555Z,3.00
2017-11-23T16:29:49.265Z,3.10
2017-11-23T16:32:23.773Z,2.90
2017-11-23T16:34:55.204Z,2.97
2017-11-23T16:37:29.505Z,2.87
2017-11-23T16:40:02.675Z,2.77
2017-11-23T16:42:38.073Z,2.67
2017-11-23T16:45:13.525Z,3.17
2017-11-23T16:47:49.235Z,3.30
2017-11-23T16:50:25.248Z,3.23
2017-11-23T16:53:00.888Z,2.83
2017-11-23T16:55:36.661Z,4.13
2017-11-23T16:58:21.206Z,3.20
2017-11-23T17:00:54.242Z,2.63
2017-11-23T17:03:28.394Z,2.73
2017-11-23T17:06:05.558Z,3.10
2017-11-23T17:08:38.205Z,2.80
2017-11-23T17:11:13.917Z,2.83
2017-11-23T17:13:50.901Z,3.40
2017-11-23T17:16:25.849Z,2.50
2017-11-23T17:18:58.332Z,2.97
2017-11-23T17:21:31.308Z,3.20
2017-11-23T17:24:06.409Z,3.00
2017-11-23T17:26:39.590Z,3.00
2017-11-23T17:29:11.542Z,2.90
2017-11-23T17:31:46.863Z,3.20
2017-11-23T17:34:24.165Z,3.30
2017-11-23T17:36:55.547Z,3.20
2017-11-23T17:39:27.177Z,2.87
2017-11-23T17:41:59.035Z,2.47
2017-11-23T17:44:31.544Z,2.73
2017-11-23T17:47:03.893Z,2.70
2017-11-23T17:49:36.031Z,3.30
2017-11-23T17:52:16.002Z,2.70
2017-11-23T17:54:49.131Z,3.47
2017-11-23T17:57:22.449Z,2.90
2017-11-23T17:59:54.621Z,2.63
2017-11-23T18:02:25.967Z,3.10
2017-11-23T18:04:57.580Z,3.17
2017-11-23T18:07:29.362Z,2.80
2017-11-23T18:10:03.142Z,3.63
2017-11-23T18:12:34.753Z,2.70
2017-11-23T18:15:06.824Z,3.00
2017-11-23T18:17:38.160Z,3.60
2017-11-23T18:20:11.862Z,3.27
2017-11-23T18:22:43.292Z,2.80
2017-11-23T18:25:15.564Z,3.10
2017-11-23T18:27:47.153Z,3.10
2017-11-23T18:30:23.607Z,3.30
2017-11-23T18:32:54.964Z,3.40
2017-11-23T18:35:28.929Z,3.23
2017-11-23T18:38:07.196Z,3.77
2017-11-23T18:40:39.204Z,3.63
2017-11-23T18:43:13.695Z,3.30
2017-11-23T18:45:47.128Z,4.00
2017-11-23T18:48:23.898Z,2.90
2017-11-23T18:50:55.304Z,3.43
2017-11-23T18:53:27.972Z,3.80
2017-11-23T18:56:00.409Z,3.10
2017-11-23T18:58:32.040Z,3.63
2017-11-23T19:01:06.141Z,3.40
2017-11-23T19:03:38.694Z,3.10
2017-11-23T19:06:18.321Z,3.17
2017-11-23T19:08:49.923Z,2.87
2017-11-23T19:11:22.620Z,3.73
2017-11-23T19:13:54.549Z,3.50
2017-11-23T19:16:27.016Z,2.80
2017-11-23T19:18:58.708Z,2.63
2017-11-23T19:21:30.254Z,2.73
2017-11-23T19:24:05.814Z,3.30
2017-11-23T19:26:38.517Z,3.23
2017-11-23T19:29:11.681Z,3.33
2017-11-23T19:31:44.110Z,3.70
2017-11-23T19:34:21.929Z,3.30
2017-11-23T19:36:54.402Z,3.00
2017-11-23T19:39:37.733Z,3.53
2017-11-23T19:42:16.340Z,3.00
2017-11-23T19:44:48.979Z,3.40
2017-11-23T19:47:22.210Z,3.00
2017-11-23T19:49:53.583Z,3.20
2017-11-23T19:52:24.942Z,3.50
2017-11-23T19:54:56.394Z,3.67
2017-11-23T19:57:27.775Z,2.90
2017-11-23T19:59:59.145Z,2.90
2017-11-23T20:02:32.214Z,2.90
2017-11-23T20:05:03.784Z,3.20
2017-11-23T20:07:35.151Z,3.27
2017-11-23T20:10:11.712Z,3.53
2017-11-23T20:12:43.022Z,4.60
2017-11-23T20:15:14.527Z,3.17
2017-11-23T20:17:46.845Z,3.83
2017-11-23T20:23:04.002Z,2.90
2017-11-23T20:25:36.058Z,3.50
2017-11-23T20:28:22.566Z,3.80
2017-11-23T20:30:56.414Z,3.10
2017-11-23T20:33:28.139Z,3.40
2017-11-23T20:36:05.630Z,3.27
2017-11-23T20:38:37.874Z,2.90
2017-11-23T20:41:10.056Z,3.17
2017-11-23T20:43:41.698Z,2.83
2017-11-23T20:46:18.327Z,3.20
2017-11-23T20:48:50.119Z,3.87
2017-11-23T20:51:25.168Z,2.70
2017-11-23T20:53:56.560Z,3.07
2017-11-23T20:56:29.495Z,3.63
2017-11-23T20:59:03.064Z,3.23
2017-11-23T21:01:34.843Z,3.30
2017-11-23T21:04:09.013Z,3.20
2017-11-23T21:06:43.700Z,3.50
2017-11-23T21:09:15.833Z,2.97
2017-11-23T21:11:49.222Z,3.40
2017-11-23T21:14:21.385Z,2.80
2017-11-23T21:16:52.742Z,3.30
2017-11-23T21:19:25.638Z,3.33
2017-11-23T21:21:58.302Z,3.13
2017-11-23T21:24:29.673Z,2.87
2017-11-23T21:27:01.769Z,3.60
2017-11-23T21:29:34.546Z,3.20
2017-11-23T21:32:11.916Z,3.40
2017-11-23T21:34:44.520Z,3.07
2017-11-23T21:37:16.144Z,3.43
2017-11-23T21:39:48.507Z,4.27
2017-11-23T21:42:20.891Z,3.60
2017-11-23T21:44:53.563Z,3.10
2017-11-23T21:49:50.065Z,3.70
2017-11-23T21:52:21.683Z,3.50
2017-11-23T21:55:03.354Z,3.70
2017-11-23T21:57:34.734Z,3.23
2017-11-23T22:00:21.216Z,3.10
2017-11-23T22:02:53.559Z,3.93
2017-11-23T22:05:25.213Z,3.23
2017-11-23T22:07:56.620Z,4.50
2017-11-23T22:10:30.114Z,3.50
2017-11-23T22:13:02.695Z,3.50
2017-11-23T22:15:34.411Z,3.50
2017-11-23T22:18:12.149Z,3.77
2017-11-23T22:20:43.596Z,3.67
2017-11-23T22:23:18.692Z,3.30
2017-11-23T22:25:50.793Z,3.17
2017-11-23T22:28:24.195Z,3.97
2017-11-23T22:30:56.745Z,4.20
2017-11-23T22:33:28.612Z,3.73
2017-11-23T22:36:00.367Z,4.00
2017-11-23T22:38:33.116Z,4.10
2017-11-23T22:44:06.757Z,3.73
2017-11-23T22:46:38.820Z,3.73
2017-11-23T22:49:15.163Z,4.77
2017-11-23T22:51:52.366Z,4.33
2017-11-23T22:54:25.638Z,3.97
2017-11-23T22:56:58.818Z,5.23
2017-11-23T22:59:31.729Z,4.17
2017-11-23T23:02:07.115Z,3.40
2017-11-23T23:04:38.588Z,5.00
2017-11-23T23:07:10.531Z,4.23
2017-11-23T23:09:43.764Z,3.97
2017-11-23T23:12:16.462Z,3.70
2017-11-23T23:14:49.026Z,3.87
2017-11-23T23:17:22.109Z,4.40
2017-11-23T23:19:54.484Z,4.83
2017-11-23T23:22:26.792Z,4.70
2017-11-23T23:24:58.369Z,3.47
2017-11-23T23:27:29.787Z,4.00
2017-11-23T23:30:04.174Z,4.33
2017-11-23T23:32:36.157Z,3.77
2017-11-23T23:35:16.692Z,5.00
2017-11-23T23:37:48.457Z,3.93
2017-11-23T23:40:22.666Z,3.93
2017-11-23T23:42:54.360Z,4.20
2017-11-23T23:45:28.688Z,4.23
2017-11-23T23:48:00.911Z,4.60
2017-11-23T23:50:33.737Z,4.70
2017-11-23T23:53:07.034Z,4.57
2017-11-23T23:55:49.225Z,4.10
2017-11-23T23:58:23.428Z,4.67
